sensor_id;sensor_type;location;lat;lon;timestamp;pressure;altitude;pressure_sealevel;temperature;humidity
54546;BME280;40444;45.184;9.850;2022-11-22T00:01:19;99339.50;;;7.23;100.00
54546;BME280;40444;45.184;9.850;2022-11-22T00:03:47;99334.28;;;7.31;100.00
54546;BME280;40444;45.184;9.850;2022-11-22T00:06:16;99328.72;;;7.24;100.00
54546;BME280;40444;45.184;9.850;2022-11-22T00:08:44;99328.81;;;7.32;100.00
54546;BME280;40444;45.184;9.850;2022-11-22T00:11:12;99318.84;;;7.34;100.00
54546;BME280;40444;45.184;9.850;2022-11-22T00:13:41;99319.50;;;7.46;100.00
54546;BME280;40444;45.184;9.850;2022-11-22T00:16:09;99315.56;;;7.41;100.00
54546;BME280;40444;45.184;9.850;2022-11-22T00:18:38;99305.31;;;7.46;100.00
54546;BME280;40444;45.184;9.850;2022-11-22T00:21:06;99294.13;;;7.42;100.00
54546;BME280;40444;45.184;9.850;2022-11-22T00:23:35;99301.22;;;7.51;100.00
54546;BME280;40444;45.184;9.850;2022-11-22T00:26:04;99301.13;;;7.43;100.00
54546;BME280;40444;45.184;9.850;2022-11-22T00:28:34;99294.66;;;7.46;100.00
54546;BME280;40444;45.184;9.850;2022-11-22T00:31:02;99284.53;;;7.49;100.00
54546;BME280;40444;45.184;9.850;2022-11-22T00:33:31;99284.91;;;7.54;100.00
54546;BME280;40444;45.184;9.850;2022-11-22T00:35:59;99272.97;;;7.58;100.00
54546;BME280;40444;45.184;9.850;2022-11-22T00:38:28;99264.00;;;7.59;100.00
54546;BME280;40444;45.184;9.850;2022-11-22T00:40:56;99255.91;;;7.69;100.00
54546;BME280;40444;45.184;9.850;2022-11-22T00:43:26;99256.59;;;7.71;100.00
54546;BME280;40444;45.184;9.850;2022-11-22T00:45:54;99256.84;;;7.78;100.00
54546;BME280;40444;45.184;9.850;2022-11-22T00:48:22;99262.25;;;7.86;100.00
54546;BME280;40444;45.184;9.850;2022-11-22T00:50:50;99254.84;;;7.80;100.00
54546;BME280;40444;45.184;9.850;2022-11-22T00:53:19;99244.09;;;7.90;100.00
54546;BME280;40444;45.184;9.850;2022-11-22T00:55:47;99240.13;;;7.94;100.00
54546;BME280;40444;45.184;9.850;2022-11-22T00:58:16;99230.16;;;7.96;100.00
54546;BME280;40444;45.184;9.850;2022-11-22T01:00:44;99228.78;;;7.92;100.00
54546;BME280;40444;45.184;9.850;2022-11-22T01:03:13;99218.66;;;7.95;100.00
54546;BME280;40444;45.184;9.850;2022-11-22T01:05:41;99214.81;;;7.98;100.00
54546;BME280;40444;45.184;9.850;2022-11-22T01:08:09;99200.34;;;8.00;100.00
54546;BME280;40444;45.184;9.850;2022-11-22T01:10:38;99187.31;;;7.97;100.00
54546;BME280;40444;45.184;9.850;2022-11-22T01:13:11;99177.66;;;7.96;100.00
54546;BME280;40444;45.184;9.850;2022-11-22T01:15:40;99163.00;;;8.00;100.00
54546;BME280;40444;45.184;9.850;2022-11-22T01:18:08;99167.19;;;8.03;100.00
54546;BME280;40444;45.184;9.850;2022-11-22T01:20:39;99160.88;;;8.04;100.00
54546;BME280;40444;45.184;9.850;2022-11-22T01:23:07;99151.88;;;8.05;100.00
54546;BME280;40444;45.184;9.850;2022-11-22T01:25:35;99150.56;;;8.09;100.00
54546;BME280;40444;45.184;9.850;2022-11-22T01:28:04;99159.41;;;8.09;100.00
54546;BME280;40444;45.184;9.850;2022-11-22T01:30:32;99151.41;;;8.09;100.00
54546;BME280;40444;45.184;9.850;2022-11-22T01:33:00;99148.56;;;8.11;100.00
54546;BME280;40444;45.184;9.850;2022-11-22T01:35:29;99148.88;;;8.08;100.00
54546;BME280;40444;45.184;9.850;2022-11-22T01:37:58;99137.38;;;8.07;100.00
54546;BME280;40444;45.184;9.850;2022-11-22T01:40:27;99127.41;;;8.09;100.00
54546;BME280;40444;45.184;9.850;2022-11-22T01:42:57;99129.91;;;8.11;100.00
54546;BME280;40444;45.184;9.850;2022-11-22T01:48:42;99110.38;;;8.10;100.00
54546;BME280;40444;45.184;9.850;2022-11-22T01:51:19;99102.06;;;8.14;100.00
54546;BME280;40444;45.184;9.850;2022-11-22T01:53:48;99086.22;;;8.12;100.00
54546;BME280;40444;45.184;9.850;2022-11-22T01:56:18;99087.06;;;8.13;100.00
54546;BME280;40444;45.184;9.850;2022-11-22T01:58:54;99077.91;;;8.15;100.00
54546;BME280;40444;45.184;9.850;2022-11-22T02:01:25;99063.72;;;8.15;100.00
54546;BME280;40444;45.184;9.850;2022-11-22T02:03:57;99059.38;;;8.14;100.00
54546;BME280;40444;45.184;9.850;2022-11-22T02:09:26;99047.38;;;8.09;100.00
54546;BME280;40444;45.184;9.850;2022-11-22T02:11:59;99044.69;;;8.09;100.00
54546;BME280;40444;45.184;9.850;2022-11-22T02:14:30;99029.88;;;8.15;100.00
54546;BME280;40444;45.184;9.850;2022-11-22T02:16:59;99030.88;;;8.14;100.00
54546;BME280;40444;45.184;9.850;2022-11-22T02:19:43;99018.38;;;8.15;100.00
54546;BME280;40444;45.184;9.850;2022-11-22T02:22:31;99005.38;;;8.20;100.00
54546;BME280;40444;45.184;9.850;2022-11-22T02:25:32;99002.06;;;8.18;100.00
54546;BME280;40444;45.184;9.850;2022-11-22T02:28:03;98997.84;;;8.15;100.00
54546;BME280;40444;45.184;9.850;2022-11-22T02:30:32;98993.34;;;8.16;100.00
54546;BME280;40444;45.184;9.850;2022-11-22T02:33:01;98989.38;;;8.20;100.00
54546;BME280;40444;45.184;9.850;2022-11-22T02:35:29;98985.88;;;8.19;100.00
54546;BME280;40444;45.184;9.850;2022-11-22T02:38:36;98977.69;;;8.21;100.00
54546;BME280;40444;45.184;9.850;2022-11-22T02:41:08;98969.19;;;8.25;100.00
54546;BME280;40444;45.184;9.850;2022-11-22T02:43:41;98968.88;;;8.28;100.00
54546;BME280;40444;45.184;9.850;2022-11-22T02:46:12;98958.38;;;8.27;100.00
54546;BME280;40444;45.184;9.850;2022-11-22T02:48:47;98957.22;;;8.29;100.00
54546;BME280;40444;45.184;9.850;2022-11-22T02:51:17;98956.06;;;8.32;100.00
54546;BME280;40444;45.184;9.850;2022-11-22T02:53:49;98962.22;;;8.32;100.00
54546;BME280;40444;45.184;9.850;2022-11-22T02:56:17;98959.56;;;8.32;100.00
54546;BME280;40444;45.184;9.850;2022-11-22T02:58:45;98953.06;;;8.35;100.00
54546;BME280;40444;45.184;9.850;2022-11-22T03:01:13;98954.88;;;8.26;100.00
54546;BME280;40444;45.184;9.850;2022-11-22T03:03:41;98942.03;;;8.30;100.00
54546;BME280;40444;45.184;9.850;2022-11-22T03:06:10;98939.53;;;8.28;100.00
54546;BME280;40444;45.184;9.850;2022-11-22T03:08:37;98940.69;;;8.26;100.00
54546;BME280;40444;45.184;9.850;2022-11-22T03:11:06;98934.88;;;8.22;100.00
54546;BME280;40444;45.184;9.850;2022-11-22T03:13:34;98937.53;;;8.22;100.00
54546;BME280;40444;45.184;9.850;2022-11-22T03:16:03;98927.00;;;8.21;100.00
54546;BME280;40444;45.184;9.850;2022-11-22T03:18:35;98915.16;;;8.15;100.00
54546;BME280;40444;45.184;9.850;2022-11-22T03:21:06;98904.81;;;8.12;100.00
54546;BME280;40444;45.184;9.850;2022-11-22T03:23:35;98890.28;;;8.06;100.00
54546;BME280;40444;45.184;9.850;2022-11-22T03:26:08;98893.44;;;8.02;100.00
54546;BME280;40444;45.184;9.850;2022-11-22T03:28:37;98889.59;;;7.96;100.00
54546;BME280;40444;45.184;9.850;2022-11-22T03:31:06;98882.78;;;8.02;100.00
54546;BME280;40444;45.184;9.850;2022-11-22T03:33:34;98865.59;;;7.96;100.00
54546;BME280;40444;45.184;9.850;2022-11-22T03:36:03;98868.09;;;7.98;100.00
54546;BME280;40444;45.184;9.850;2022-11-22T03:38:33;98882.44;;;7.97;100.00
54546;BME280;40444;45.184;9.850;2022-11-22T03:41:01;98878.75;;;7.98;100.00
54546;BME280;40444;45.184;9.850;2022-11-22T03:43:30;98893.41;;;7.94;100.00
54546;BME280;40444;45.184;9.850;2022-11-22T03:45:59;98862.59;;;7.91;100.00
54546;BME280;40444;45.184;9.850;2022-11-22T03:48:27;98866.72;;;7.77;100.00
54546;BME280;40444;45.184;9.850;2022-11-22T03:51:06;98868.63;;;7.51;100.00
54546;BME280;40444;45.184;9.850;2022-11-22T03:53:34;98869.84;;;7.30;100.00
54546;BME280;40444;45.184;9.850;2022-11-22T03:56:03;98867.22;;;7.39;100.00
54546;BME280;40444;45.184;9.850;2022-11-22T03:58:32;98872.88;;;7.35;100.00
54546;BME280;40444;45.184;9.850;2022-11-22T04:01:00;98862.91;;;7.38;100.00
54546;BME280;40444;45.184;9.850;2022-11-22T04:03:29;98863.88;;;7.37;100.00
54546;BME280;40444;45.184;9.850;2022-11-22T04:05:58;98851.06;;;7.40;100.00
54546;BME280;40444;45.184;9.850;2022-11-22T04:08:26;98858.94;;;7.42;100.00
54546;BME280;40444;45.184;9.850;2022-11-22T04:10:54;98858.88;;;7.33;100.00
54546;BME280;40444;45.184;9.850;2022-11-22T04:13:23;98861.13;;;7.46;100.00
54546;BME280;40444;45.184;9.850;2022-11-22T04:16:11;98849.06;;;7.34;100.00
54546;BME280;40444;45.184;9.850;2022-11-22T04:18:40;98844.16;;;7.21;100.00
54546;BME280;40444;45.184;9.850;2022-11-22T04:21:08;98839.16;;;7.18;100.00
54546;BME280;40444;45.184;9.850;2022-11-22T04:23:55;98824.47;;;7.14;100.00
54546;BME280;40444;45.184;9.850;2022-11-22T04:26:42;98830.44;;;7.08;100.00
54546;BME280;40444;45.184;9.850;2022-11-22T04:29:11;98841.31;;;7.15;100.00
54546;BME280;40444;45.184;9.850;2022-11-22T04:31:39;98845.16;;;7.20;100.00
54546;BME280;40444;45.184;9.850;2022-11-22T04:34:26;98830.63;;;7.06;100.00
54546;BME280;40444;45.184;9.850;2022-11-22T04:36:55;98833.47;;;7.13;100.00
54546;BME280;40444;45.184;9.850;2022-11-22T04:39:23;98834.59;;;7.02;100.00
54546;BME280;40444;45.184;9.850;2022-11-22T22:00:34;99084.53;;;5.58;100.00
54546;BME280;40444;45.184;9.850;2022-11-22T22:03:03;99080.91;;;5.69;100.00
54546;BME280;40444;45.184;9.850;2022-11-22T22:05:33;99083.81;;;5.85;100.00
54546;BME280;40444;45.184;9.850;2022-11-22T22:08:02;99091.19;;;6.01;100.00
54546;BME280;40444;45.184;9.850;2022-11-22T22:10:30;99090.16;;;6.12;100.00
54546;BME280;40444;45.184;9.850;2022-11-22T22:12:59;99096.75;;;6.17;100.00
54546;BME280;40444;45.184;9.850;2022-11-22T22:15:27;99097.28;;;6.21;100.00
54546;BME280;40444;45.184;9.850;2022-11-22T22:17:56;99101.03;;;6.28;100.00
54546;BME280;40444;45.184;9.850;2022-11-22T22:20:28;99093.16;;;6.36;100.00
54546;BME280;40444;45.184;9.850;2022-11-22T22:22:57;99097.34;;;6.39;100.00
54546;BME280;40444;45.184;9.850;2022-11-22T22:25:25;99095.91;;;6.44;100.00
54546;BME280;40444;45.184;9.850;2022-11-22T22:27:56;99105.56;;;6.45;100.00
54546;BME280;40444;45.184;9.850;2022-11-22T22:30:28;99111.00;;;6.53;100.00
54546;BME280;40444;45.184;9.850;2022-11-22T22:32:57;99122.88;;;6.59;100.00
54546;BME280;40444;45.184;9.850;2022-11-22T22:35:26;99125.53;;;6.59;100.00
54546;BME280;40444;45.184;9.850;2022-11-22T22:37:55;99128.63;;;6.54;100.00
54546;BME280;40444;45.184;9.850;2022-11-22T22:40:24;99135.50;;;6.57;100.00
54546;BME280;40444;45.184;9.850;2022-11-22T22:42:52;99136.16;;;6.59;100.00
54546;BME280;40444;45.184;9.850;2022-11-22T22:45:20;99142.50;;;6.58;100.00
54546;BME280;40444;45.184;9.850;2022-11-22T22:47:49;99141.94;;;6.54;100.00
54546;BME280;40444;45.184;9.850;2022-11-22T22:50:18;99152.75;;;6.53;100.00
54546;BME280;40444;45.184;9.850;2022-11-22T22:52:48;99148.69;;;6.49;100.00
54546;BME280;40444;45.184;9.850;2022-11-22T22:55:16;99149.97;;;6.45;100.00
54546;BME280;40444;45.184;9.850;2022-11-22T22:57:44;99152.91;;;6.42;100.00
54546;BME280;40444;45.184;9.850;2022-11-22T23:00:14;99164.69;;;6.39;100.00
54546;BME280;40444;45.184;9.850;2022-11-22T23:02:42;99167.09;;;6.32;100.00
54546;BME280;40444;45.184;9.850;2022-11-22T23:05:12;99169.06;;;6.30;100.00
54546;BME280;40444;45.184;9.850;2022-11-22T23:07:40;99177.06;;;6.30;100.00
54546;BME280;40444;45.184;9.850;2022-11-22T23:10:10;99182.38;;;6.30;100.00
54546;BME280;40444;45.184;9.850;2022-11-22T23:12:39;99184.31;;;6.28;100.00
54546;BME280;40444;45.184;9.850;2022-11-22T23:15:07;99177.50;;;6.26;100.00
54546;BME280;40444;45.184;9.850;2022-11-22T23:17:36;99177.63;;;6.24;100.00
54546;BME280;40444;45.184;9.850;2022-11-22T23:20:05;99183.25;;;6.21;100.00
54546;BME280;40444;45.184;9.850;2022-11-22T23:22:33;99190.66;;;6.18;100.00
54546;BME280;40444;45.184;9.850;2022-11-22T23:25:02;99190.94;;;6.15;100.00
54546;BME280;40444;45.184;9.850;2022-11-22T23:27:30;99194.59;;;6.14;100.00
54546;BME280;40444;45.184;9.850;2022-11-22T23:29:59;99199.19;;;6.12;100.00
54546;BME280;40444;45.184;9.850;2022-11-22T23:32:29;99205.81;;;6.07;100.00
54546;BME280;40444;45.184;9.850;2022-11-22T23:34:58;99195.44;;;6.04;100.00
54546;BME280;40444;45.184;9.850;2022-11-22T23:37:26;99206.09;;;6.04;100.00
54546;BME280;40444;45.184;9.850;2022-11-22T23:39:54;99207.06;;;6.03;100.00
54546;BME280;40444;45.184;9.850;2022-11-22T23:42:23;99207.19;;;6.02;100.00
54546;BME280;40444;45.184;9.850;2022-11-22T23:44:51;99212.94;;;5.97;100.00
54546;BME280;40444;45.184;9.850;2022-11-22T23:47:19;99210.44;;;5.96;100.00
54546;BME280;40444;45.184;9.850;2022-11-22T23:49:47;99216.75;;;5.95;100.00
54546;BME280;40444;45.184;9.850;2022-11-22T23:52:16;99216.75;;;5.95;100.00
54546;BME280;40444;45.184;9.850;2022-11-22T23:54:45;99215.19;;;5.92;100.00
54546;BME280;40444;45.184;9.850;2022-11-22T23:57:14;99215.31;;;5.91;100.00
54546;BME280;40444;45.184;9.850;2022-11-22T23:59:42;99212.94;;;5.88;100.00
